South Beach, OR

10:17 AM PDT on August 02, 2015 (GMT -0700)
Ona Beach | | Change Station
CLOSE
Current Station
Personal Weather Station
Location: South Beach, OR
Elevation: 60 ft
Nearby Weather Stations

Elev 60 ft 44.53 °N, 124.07 °W | Updated 59 seconds ago

Overcast
Overcast
56.3 °F
Feels Like 56.3 °F
N
1.0
Wind Variable Wind from South
Gusts 4.0 mph

Today
High -- | Low -- °F
--% Chance of Precip.
Yesterday
High -- | Low -- °F
Precip. -- in
6:03 AM 8:40 PM
Waning Gibbous, 93% visible
Pressure 30.03 in
Visibility 7.0 miles
Clouds Mostly Cloudy 200 ft
Overcast 900 ft
Dew Point 55 °F
Humidity 95%
Rainfall 0.00 in
Snow Depth Not available.
UV 2 out of 12
Pollen 3.40 out of 12
Air Quality Not available.
Flu Activity Not available.
METAR KONP 021655Z AUTO 21006KT 7SM BKN002 OVC009 14/13 A3003 RMK AO2

More Conditions Fewer Conditions

Pressure 30.03 in
Visibility 7.0 miles
Clouds Mostly Cloudy 200 ft
Overcast 900 ft
Dew Point 55 °F
Humidity 95%
Rainfall 0.00 in
Snow Depth Not available.
UV 2 out of 12
Pollen 3.40 out of 12
Air Quality Not available.
Flu Activity Not available.
METAR KONP 021655Z AUTO 21006KT 7SM BKN002 OVC009 14/13 A3003 RMK AO2

More Conditions Fewer Conditions

10-Day Weather Forecast

×

Almanac

Astronomy

Aug. 02, 2015 Rise Set
Actual Time
Civil Twilight
Nautical Twilight
Astronomical Twilight
Moon
Length of Visible Light
Length of Day
Tomorrow will be .
, % of the Moon is Illuminated

Today's Extremes

State Highs State Lows

Community

WunderPhotos

Upload Photos

1,843,318 photos uploaded!

WunderBlogs® & News

Nearby

Air Quality

  Air Quality AQ Index Pollutant
Not available.

Snow Depth

Station Depth Elevation

Earthquake Activity

City Distance Mag. Time & Date
Minimum magnitude displayed is 2.5.

Coastal Water Temperatures

Place Temperature

Stations

Nearby Weather Stations

Station Location Temp. Windchill Dew Point Humidity Wind Precip. Elev Updated Type